createdAt,value
2017-04-11T00:00:24.120Z,2.50
2017-04-11T00:01:23.835Z,2.87
2017-04-11T00:02:23.609Z,2.24
2017-04-11T00:03:23.329Z,2.30
2017-04-11T00:04:23.007Z,1.89
2017-04-11T00:05:22.788Z,2.44
2017-04-11T00:06:22.600Z,2.63
2017-04-11T00:07:22.309Z,1.97
2017-04-11T00:08:22.187Z,1.89
2017-04-11T00:09:21.945Z,2.40
2017-04-11T00:10:21.699Z,2.61
2017-04-11T00:11:21.397Z,1.97
2017-04-11T00:12:21.184Z,1.77
2017-04-11T00:13:20.974Z,3.13
2017-04-11T00:14:20.692Z,2.27
2017-04-11T00:15:20.435Z,2.09
2017-04-11T00:16:20.180Z,2.33
2017-04-11T00:17:19.834Z,2.51
2017-04-11T00:18:19.547Z,2.74
2017-04-11T00:19:19.275Z,2.13
2017-04-11T00:20:18.984Z,2.23
2017-04-11T00:21:18.706Z,2.46
2017-04-11T00:22:18.419Z,2.21
2017-04-11T00:23:18.202Z,2.40
2017-04-11T00:24:18.005Z,2.86
2017-04-11T00:25:17.719Z,2.73
2017-04-11T00:26:17.539Z,2.39
2017-04-11T00:27:17.277Z,2.21
2017-04-11T00:28:17.020Z,2.23
2017-04-11T00:29:16.845Z,2.71
2017-04-11T00:30:16.581Z,2.44
2017-04-11T00:31:16.413Z,2.41
2017-04-11T00:32:16.128Z,3.24
2017-04-11T00:33:16.870Z,2.59
2017-04-11T00:34:16.614Z,2.36
2017-04-11T00:35:16.311Z,2.23
2017-04-11T00:36:15.991Z,2.04
2017-04-11T00:37:15.660Z,2.49
2017-04-11T00:38:15.415Z,1.89
2017-04-11T00:39:15.088Z,2.47
2017-04-11T00:40:14.788Z,2.00
2017-04-11T00:41:14.509Z,2.86
2017-04-11T00:42:14.172Z,1.79
2017-04-11T00:43:13.853Z,2.44
2017-04-11T00:44:13.513Z,2.37
2017-04-11T00:45:13.491Z,2.29
2017-04-11T00:46:13.188Z,2.04
2017-04-11T00:47:12.902Z,2.10
2017-04-11T00:48:12.797Z,1.77
2017-04-11T00:49:12.544Z,2.10
2017-04-11T00:50:12.277Z,2.27
2017-04-11T00:51:11.964Z,2.16
2017-04-11T00:52:11.740Z,2.27
2017-04-11T00:53:11.448Z,2.24
2017-04-11T00:54:12.260Z,2.46
2017-04-11T00:55:12.068Z,1.84
2017-04-11T00:56:11.742Z,2.41
2017-04-11T00:57:11.786Z,2.43
2017-04-11T00:58:11.507Z,3.20
2017-04-11T00:59:11.233Z,1.67
2017-04-11T01:00:10.951Z,2.01
2017-04-11T01:01:10.677Z,1.74
2017-04-11T01:02:10.436Z,1.89
2017-04-11T01:03:10.177Z,1.86
2017-04-11T01:04:09.920Z,1.87
2017-04-11T01:05:09.670Z,1.34
2017-04-11T01:06:09.461Z,1.61
2017-04-11T01:07:09.191Z,1.57
2017-04-11T01:08:08.920Z,1.87
2017-04-11T01:09:08.965Z,1.36
2017-04-11T01:10:08.708Z,2.54
2017-04-11T01:11:08.476Z,1.44
2017-04-11T01:12:08.213Z,1.49
2017-04-11T01:13:08.001Z,1.61
2017-04-11T01:14:07.744Z,2.03
2017-04-11T01:15:07.673Z,1.36
2017-04-11T01:16:07.372Z,1.40
2017-04-11T01:17:07.122Z,1.39
2017-04-11T01:18:06.953Z,1.14
2017-04-11T01:19:06.686Z,1.40
2017-04-11T01:20:06.401Z,1.54
2017-04-11T01:21:06.096Z,1.07
2017-04-11T01:22:05.777Z,1.83
2017-04-11T01:23:05.456Z,1.30
2017-04-11T01:24:05.409Z,1.73
2017-04-11T01:25:05.141Z,1.54
2017-04-11T01:26:04.879Z,1.47
2017-04-11T01:27:04.625Z,1.51
2017-04-11T01:28:04.337Z,1.81
2017-04-11T01:29:04.065Z,1.43
2017-04-11T01:30:03.788Z,1.04
2017-04-11T01:31:03.539Z,1.37
2017-04-11T01:32:03.253Z,1.73
2017-04-11T01:33:02.979Z,2.13
2017-04-11T01:34:02.664Z,2.13
2017-04-11T01:35:02.393Z,1.33
2017-04-11T01:36:02.224Z,1.91
2017-04-11T01:37:01.920Z,1.36
2017-04-11T01:38:32.227Z,1.36
2017-04-11T01:39:31.936Z,1.26
2017-04-11T01:40:31.628Z,1.34
2017-04-11T01:41:31.317Z,1.59
2017-04-11T01:42:31.030Z,1.64
2017-04-11T01:43:30.773Z,1.71
2017-04-11T01:44:30.520Z,1.97
2017-04-11T01:45:30.237Z,2.27
2017-04-11T01:46:30.036Z,1.56
2017-04-11T01:47:29.755Z,1.97
2017-04-11T01:48:29.711Z,2.21
2017-04-11T01:49:29.487Z,1.70
2017-04-11T01:50:29.218Z,1.94
2017-04-11T01:51:29.013Z,1.84
2017-04-11T01:52:29.332Z,1.47
2017-04-11T01:53:29.054Z,2.06
2017-04-11T01:54:28.749Z,1.71
2017-04-11T01:55:28.497Z,2.67
2017-04-11T01:56:28.178Z,2.07
2017-04-11T01:57:27.852Z,1.84
2017-04-11T01:58:27.589Z,1.81
2017-04-11T01:59:27.356Z,2.04
2017-04-11T02:00:27.074Z,1.64
2017-04-11T02:01:26.804Z,2.11
2017-04-11T02:02:26.842Z,2.73
2017-04-11T02:03:26.552Z,2.04
2017-04-11T02:04:26.267Z,2.26
2017-04-11T02:05:26.009Z,1.76
2017-04-11T02:06:25.748Z,2.13
2017-04-11T02:07:25.440Z,2.10
2017-04-11T02:08:25.253Z,2.46
2017-04-11T02:09:25.128Z,2.59
2017-04-11T02:10:24.917Z,2.04
2017-04-11T02:11:24.756Z,2.21
2017-04-11T02:12:24.471Z,1.83
2017-04-11T02:13:24.168Z,2.37
2017-04-11T02:14:23.844Z,2.09
2017-04-11T02:15:23.560Z,1.89
2017-04-11T02:16:23.320Z,2.23
2017-04-11T02:17:23.049Z,3.17
2017-04-11T02:18:22.745Z,2.46
2017-04-11T02:19:22.473Z,1.94
2017-04-11T02:20:22.278Z,2.63
2017-04-11T02:21:21.977Z,1.86
2017-04-11T02:22:21.702Z,2.00
2017-04-11T02:23:21.393Z,2.39
2017-04-11T02:24:21.068Z,1.63
2017-04-11T02:25:20.756Z,2.13
2017-04-11T02:26:20.453Z,1.76
2017-04-11T02:27:20.162Z,2.59
2017-04-11T02:28:19.973Z,1.67
2017-04-11T02:29:19.641Z,2.43
2017-04-11T02:30:19.343Z,2.04
2017-04-11T02:31:19.041Z,1.99
2017-04-11T02:32:19.509Z,2.59
2017-04-11T02:33:19.208Z,3.01
2017-04-11T02:34:18.945Z,2.31
2017-04-11T02:35:18.703Z,2.54
2017-04-11T02:36:18.408Z,2.50
2017-04-11T02:37:18.121Z,2.40
2017-04-11T02:38:17.812Z,1.99
2017-04-11T02:39:17.564Z,2.11
2017-04-11T02:40:17.299Z,2.31
2017-04-11T02:41:17.055Z,2.04
2017-04-11T02:42:16.799Z,1.69
2017-04-11T02:43:16.484Z,1.67
2017-04-11T02:44:16.211Z,2.51
2017-04-11T02:45:15.904Z,2.14
2017-04-11T02:46:15.633Z,2.86
2017-04-11T02:47:15.360Z,2.19
2017-04-11T02:48:15.016Z,2.01
2017-04-11T02:49:14.690Z,2.24
2017-04-11T02:50:14.407Z,3.24
2017-04-11T02:51:14.274Z,2.21
2017-04-11T02:52:14.124Z,3.01
2017-04-11T02:53:14.096Z,2.43
2017-04-11T02:54:13.764Z,2.71
2017-04-11T02:55:13.551Z,3.06
2017-04-11T02:56:13.276Z,2.59
2017-04-11T02:57:13.004Z,2.11
2017-04-11T02:58:12.724Z,2.19
2017-04-11T02:59:12.428Z,3.19
2017-04-11T03:00:12.182Z,2.59
2017-04-11T03:01:11.929Z,2.91
2017-04-11T03:02:11.620Z,1.70
2017-04-11T03:03:11.375Z,3.59
2017-04-11T03:04:11.378Z,2.79
2017-04-11T03:05:11.085Z,1.90
2017-04-11T03:06:10.782Z,2.99
2017-04-11T03:07:10.486Z,2.16
2017-04-11T03:08:10.494Z,2.41
2017-04-11T03:09:10.213Z,2.97
2017-04-11T03:10:09.932Z,3.00
2017-04-11T03:11:09.654Z,2.44
2017-04-11T03:12:09.359Z,2.20
2017-04-11T03:13:09.034Z,2.87
2017-04-11T03:14:08.722Z,2.40
2017-04-11T03:15:08.495Z,2.69
2017-04-11T03:16:08.602Z,3.66
2017-04-11T03:17:08.353Z,2.46
2017-04-11T03:18:08.271Z,2.46
2017-04-11T03:19:07.969Z,2.16
2017-04-11T03:20:07.665Z,2.36
2017-04-11T03:21:07.345Z,2.74
2017-04-11T03:22:07.074Z,3.03
2017-04-11T03:23:06.763Z,2.77
2017-04-11T03:24:06.460Z,2.50
2017-04-11T03:25:06.227Z,3.16
2017-04-11T03:26:05.922Z,2.30
2017-04-11T03:27:05.972Z,2.63
2017-04-11T03:28:06.008Z,2.54
2017-04-11T03:29:05.713Z,2.53
2017-04-11T03:30:05.394Z,2.70
2017-04-11T03:31:05.062Z,3.06
2017-04-11T03:32:04.752Z,3.46
2017-04-11T03:33:04.466Z,2.84
2017-04-11T03:34:04.153Z,3.33
2017-04-11T03:35:03.856Z,2.87
2017-04-11T03:36:03.735Z,2.86
2017-04-11T03:37:03.588Z,3.07
2017-04-11T03:38:04.010Z,2.96
2017-04-11T03:39:03.937Z,3.40
2017-04-11T03:40:04.076Z,3.54
2017-04-11T03:41:03.916Z,2.96
2017-04-11T03:42:03.664Z,3.21
2017-04-11T03:43:03.380Z,3.14
2017-04-11T03:44:03.134Z,3.99
2017-04-11T03:45:02.892Z,3.57
2017-04-11T03:46:02.629Z,2.69
2017-04-11T03:47:02.368Z,3.87
2017-04-11T03:48:02.052Z,3.17
2017-04-11T03:49:01.783Z,3.53
2017-04-11T03:50:01.491Z,3.60
2017-04-11T03:51:01.207Z,3.59
2017-04-11T03:52:00.936Z,3.89
2017-04-11T03:53:00.599Z,3.57
2017-04-11T03:54:00.342Z,3.64
2017-04-11T03:55:00.020Z,3.06
2017-04-11T03:55:59.719Z,3.34
2017-04-11T03:56:59.432Z,3.66
2017-04-11T03:57:59.164Z,3.50
2017-04-11T03:58:58.929Z,3.93
2017-04-11T03:59:58.807Z,3.37
2017-04-11T04:00:58.524Z,3.16
2017-04-11T04:01:58.341Z,3.84
2017-04-11T04:02:58.150Z,4.57
2017-04-11T04:03:57.952Z,4.04
2017-04-11T04:04:57.742Z,3.17
2017-04-11T04:05:57.458Z,3.20
2017-04-11T04:06:57.142Z,3.73
2017-04-11T04:07:56.818Z,3.06
2017-04-11T04:08:56.483Z,3.31
2017-04-11T04:09:56.190Z,3.37
2017-04-11T04:10:56.183Z,3.49
2017-04-11T04:11:55.944Z,3.80
2017-04-11T04:12:55.629Z,4.37
2017-04-11T04:13:55.328Z,3.54
2017-04-11T04:14:55.024Z,4.44
2017-04-11T04:15:54.932Z,3.89
2017-04-11T04:16:54.632Z,4.39
2017-04-11T04:17:54.329Z,3.17
2017-04-11T04:18:54.052Z,5.06
2017-04-11T04:19:53.772Z,3.76
2017-04-11T04:20:53.568Z,3.91
2017-04-11T04:21:53.307Z,4.44
2017-04-11T04:22:53.149Z,4.40
2017-04-11T04:23:52.926Z,5.17
2017-04-11T04:24:52.644Z,3.91
2017-04-11T04:25:52.346Z,4.10
2017-04-11T04:26:52.077Z,4.31
2017-04-11T04:27:51.791Z,4.26
2017-04-11T04:28:51.492Z,3.54
2017-04-11T04:29:51.193Z,4.34
2017-04-11T04:30:50.874Z,4.63
2017-04-11T04:31:50.594Z,4.69
2017-04-11T04:32:50.603Z,3.60
2017-04-11T04:33:50.349Z,3.97
2017-04-11T04:34:50.116Z,4.76
2017-04-11T04:35:49.915Z,4.57
2017-04-11T04:36:49.639Z,4.66
2017-04-11T04:37:49.317Z,5.23
2017-04-11T04:38:48.996Z,3.74
2017-04-11T04:39:49.019Z,5.39
2017-04-11T04:40:48.723Z,4.10
2017-04-11T04:41:48.429Z,4.29
2017-04-11T04:42:48.156Z,5.13
2017-04-11T04:43:47.940Z,4.04
2017-04-11T04:44:47.647Z,5.04
2017-04-11T04:45:47.521Z,4.20
2017-04-11T04:46:47.256Z,4.39
2017-04-11T04:47:46.939Z,4.86
2017-04-11T04:48:47.051Z,5.71
2017-04-11T04:49:46.746Z,4.33
2017-04-11T04:50:46.465Z,4.03
2017-04-11T04:51:46.179Z,4.63
2017-04-11T04:52:45.864Z,4.66
2017-04-11T04:53:45.558Z,4.27
2017-04-11T04:54:45.302Z,4.91
2017-04-11T04:55:45.056Z,4.74
2017-04-11T04:56:44.787Z,4.80
2017-04-11T04:57:44.517Z,3.91
2017-04-11T04:58:44.239Z,4.79
2017-04-11T04:59:43.934Z,4.06
2017-04-11T05:00:43.656Z,4.20
2017-04-11T05:01:43.356Z,4.60
2017-04-11T05:02:43.052Z,3.93
2017-04-11T05:03:42.848Z,4.14
2017-04-11T05:04:42.624Z,5.06
2017-04-11T05:05:42.403Z,4.69
2017-04-11T05:06:42.320Z,4.66
2017-04-11T05:07:42.056Z,4.63
2017-04-11T05:08:42.043Z,4.86
2017-04-11T05:09:41.837Z,4.81
2017-04-11T05:10:41.623Z,4.77
2017-04-11T05:11:41.357Z,4.77
2017-04-11T05:12:41.084Z,4.19
2017-04-11T05:13:40.856Z,5.10
2017-04-11T05:14:40.580Z,5.29
2017-04-11T05:15:40.357Z,4.01
2017-04-11T05:16:40.090Z,4.46
2017-04-11T05:17:39.832Z,4.69
2017-04-11T05:18:39.620Z,4.71
2017-04-11T05:19:39.297Z,4.36
2017-04-11T05:20:39.084Z,4.89
2017-04-11T05:21:38.779Z,4.30
2017-04-11T05:22:38.498Z,5.57
2017-04-11T05:23:38.242Z,4.77
2017-04-11T05:24:37.941Z,4.27
2017-04-11T05:25:38.152Z,4.83
2017-04-11T05:26:39.184Z,4.04
2017-04-11T05:27:38.958Z,5.41
2017-04-11T05:28:38.643Z,5.04
2017-04-11T05:29:39.174Z,4.79
2017-04-11T05:30:38.923Z,4.96
2017-04-11T05:31:40.370Z,5.09
2017-04-11T05:32:40.421Z,5.27
2017-04-11T05:33:41.278Z,4.47
2017-04-11T05:34:41.478Z,5.26
2017-04-11T05:35:41.224Z,4.17
2017-04-11T05:36:40.930Z,5.20
2017-04-11T05:37:40.763Z,4.46
2017-04-11T05:38:40.558Z,4.39
2017-04-11T05:39:40.321Z,4.44
2017-04-11T05:40:40.086Z,5.04
2017-04-11T05:41:39.751Z,4.93
2017-04-11T05:42:39.510Z,4.77
2017-04-11T05:43:39.183Z,4.31
2017-04-11T05:44:39.189Z,4.49
2017-04-11T05:45:38.875Z,5.37
2017-04-11T05:46:38.884Z,5.13
2017-04-11T05:47:38.635Z,5.40
2017-04-11T05:48:38.389Z,5.06
2017-04-11T05:49:38.110Z,4.54
2017-04-11T05:50:37.822Z,4.40
2017-04-11T05:51:39.171Z,4.20
2017-04-11T05:52:39.199Z,4.94
2017-04-11T05:53:38.984Z,3.89
2017-04-11T05:54:38.829Z,4.61
2017-04-11T05:55:38.574Z,4.37
2017-04-11T05:56:38.295Z,4.23
2017-04-11T05:57:38.146Z,3.86
2017-04-11T05:58:38.310Z,3.66
2017-04-11T05:59:38.038Z,4.39
2017-04-11T06:00:38.007Z,3.26
2017-04-11T06:01:37.760Z,4.01
2017-04-11T06:02:37.501Z,4.46
2017-04-11T06:03:37.620Z,4.59
2017-04-11T06:04:37.358Z,3.99
2017-04-11T06:05:37.049Z,3.91
2017-04-11T06:06:36.837Z,4.74
2017-04-11T06:07:36.664Z,3.76
2017-04-11T06:08:36.412Z,3.51
2017-04-11T06:09:36.155Z,4.33
2017-04-11T06:10:35.969Z,4.29
2017-04-11T06:11:35.670Z,4.24
2017-04-11T06:12:35.764Z,4.87
2017-04-11T06:13:35.614Z,4.14
2017-04-11T06:14:35.294Z,4.44
2017-04-11T06:15:35.426Z,4.66
2017-04-11T06:16:35.287Z,4.51
2017-04-11T06:17:39.687Z,3.44
2017-04-11T06:18:39.527Z,3.41
2017-04-11T06:19:39.916Z,3.89
2017-04-11T06:20:39.748Z,4.01
2017-04-11T06:21:39.708Z,4.20
2017-04-11T06:22:40.123Z,3.31
2017-04-11T06:23:39.975Z,3.97
2017-04-11T06:24:39.795Z,3.56
2017-04-11T06:25:39.548Z,3.27
2017-04-11T06:26:39.307Z,3.33
2017-04-11T06:27:39.041Z,3.53
2017-04-11T06:28:38.810Z,3.84
2017-04-11T06:29:38.588Z,3.36
2017-04-11T06:30:38.303Z,3.14
2017-04-11T06:31:38.320Z,4.71
2017-04-11T06:32:38.676Z,4.09
2017-04-11T06:33:38.557Z,3.49
2017-04-11T06:34:38.415Z,4.50
2017-04-11T06:35:38.250Z,3.21
2017-04-11T06:36:38.063Z,4.26
2017-04-11T06:37:38.120Z,3.74
2017-04-11T06:38:37.988Z,3.60
2017-04-11T06:39:37.784Z,3.40
2017-04-11T06:40:38.050Z,4.30
2017-04-11T06:41:38.295Z,3.34
2017-04-11T06:42:41.181Z,3.71
2017-04-11T06:43:40.952Z,3.90
2017-04-11T06:44:41.039Z,3.17
2017-04-11T06:45:40.938Z,3.49
2017-04-11T06:46:40.734Z,3.80
2017-04-11T06:47:44.510Z,4.00
2017-04-11T06:48:44.293Z,3.91
2017-04-11T06:49:44.078Z,3.60
2017-04-11T06:50:43.814Z,4.10
2017-04-11T06:51:43.626Z,3.91
2017-04-11T06:52:43.396Z,3.81
2017-04-11T06:53:43.164Z,3.33
2017-04-11T06:54:42.916Z,3.81
2017-04-11T06:55:42.686Z,3.47
2017-04-11T06:56:42.403Z,3.63
2017-04-11T06:57:42.225Z,3.29
2017-04-11T06:58:42.047Z,3.84
2017-04-11T06:59:41.809Z,3.21
2017-04-11T07:00:41.655Z,3.76
2017-04-11T07:01:41.481Z,3.40
2017-04-11T07:02:41.522Z,3.74
2017-04-11T07:03:41.493Z,3.16
2017-04-11T07:04:41.524Z,3.93
2017-04-11T07:05:41.759Z,4.37
2017-04-11T07:06:41.670Z,4.73
2017-04-11T07:07:42.022Z,3.03
2017-04-11T07:08:42.702Z,3.69
2017-04-11T07:09:42.815Z,3.81
2017-04-11T07:10:42.590Z,3.36
2017-04-11T07:11:42.386Z,3.26
2017-04-11T07:12:42.327Z,3.81
2017-04-11T07:13:42.185Z,3.07
2017-04-11T07:14:41.987Z,3.93
2017-04-11T07:15:41.807Z,3.27
2017-04-11T07:16:41.614Z,3.94
2017-04-11T07:17:41.549Z,3.47
2017-04-11T07:18:41.812Z,4.01
2017-04-11T07:19:41.562Z,3.70
2017-04-11T07:20:41.406Z,3.93
2017-04-11T07:21:41.155Z,3.39
2017-04-11T07:22:41.826Z,3.36
2017-04-11T07:23:41.613Z,3.76
2017-04-11T07:24:41.444Z,3.81
2017-04-11T07:25:41.128Z,3.30
2017-04-11T07:26:40.883Z,3.40
2017-04-11T07:27:40.671Z,3.34
2017-04-11T07:28:40.845Z,3.93
2017-04-11T07:29:40.565Z,3.24
2017-04-11T07:30:41.583Z,3.86
2017-04-11T07:31:41.452Z,4.30
2017-04-11T07:32:41.706Z,4.21
2017-04-11T07:33:41.636Z,4.13
2017-04-11T07:34:41.447Z,3.64
2017-04-11T07:35:41.185Z,3.80
2017-04-11T07:36:40.892Z,3.67
2017-04-11T07:37:40.653Z,4.43
2017-04-11T07:38:40.441Z,3.47
2017-04-11T07:39:40.297Z,2.93
2017-04-11T07:40:40.307Z,3.69
2017-04-11T07:41:40.133Z,3.06
2017-04-11T07:42:39.870Z,4.06
2017-04-11T07:43:39.585Z,3.61
2017-04-11T07:44:39.341Z,3.17
2017-04-11T07:45:39.134Z,3.14
2017-04-11T07:46:38.841Z,2.86
2017-04-11T07:47:38.592Z,3.34
2017-04-11T07:48:38.311Z,2.67
2017-04-11T07:49:38.140Z,3.29
2017-04-11T07:50:37.876Z,3.37
2017-04-11T07:51:38.263Z,2.99
2017-04-11T07:52:38.070Z,3.47
2017-04-11T07:53:38.228Z,2.97
2017-04-11T07:54:38.292Z,3.16
2017-04-11T07:55:38.513Z,2.66
2017-04-11T07:56:38.301Z,3.03
2017-04-11T07:57:38.100Z,3.19
2017-04-11T07:58:37.879Z,3.06
2017-04-11T07:59:37.608Z,2.59
2017-04-11T08:00:37.393Z,2.73
2017-04-11T08:01:37.457Z,2.60
2017-04-11T08:02:37.976Z,2.84
2017-04-11T08:03:37.777Z,2.39
2017-04-11T08:04:37.651Z,2.34
2017-04-11T08:05:37.432Z,2.89
2017-04-11T08:06:37.253Z,2.44
2017-04-11T08:07:37.054Z,2.66
2017-04-11T08:08:38.122Z,2.47
2017-04-11T08:09:37.959Z,2.71
2017-04-11T08:10:37.717Z,3.04
2017-04-11T08:11:37.699Z,2.67
2017-04-11T08:12:37.541Z,2.96
2017-04-11T08:13:37.382Z,2.96
2017-04-11T08:14:38.097Z,2.73
2017-04-11T08:15:38.026Z,2.74
2017-04-11T08:16:38.300Z,3.07
2017-04-11T08:17:38.075Z,2.27
2017-04-11T08:18:41.457Z,2.86
2017-04-11T08:19:41.539Z,2.96
2017-04-11T08:20:42.394Z,2.91
2017-04-11T08:21:42.297Z,2.84
2017-04-11T08:22:42.180Z,2.91
2017-04-11T08:23:42.221Z,2.94
2017-04-11T08:24:42.262Z,3.09
2017-04-11T08:25:42.172Z,2.87
2017-04-11T08:26:41.912Z,2.67
2017-04-11T08:27:41.655Z,2.64
2017-04-11T08:28:41.368Z,2.54
2017-04-11T08:29:41.805Z,2.81
2017-04-11T08:30:41.568Z,2.86
2017-04-11T08:31:41.312Z,2.09
2017-04-11T08:32:41.057Z,2.86
2017-04-11T08:33:40.779Z,2.86
2017-04-11T08:34:40.509Z,2.23
2017-04-11T08:35:40.281Z,2.76
2017-04-11T08:36:40.178Z,2.47
2017-04-11T08:37:40.002Z,2.81
2017-04-11T08:38:39.766Z,2.74
2017-04-11T08:39:39.587Z,2.90
2017-04-11T08:40:39.683Z,2.71
2017-04-11T08:41:40.002Z,2.10
2017-04-11T08:42:39.773Z,2.09
2017-04-11T08:43:40.557Z,2.81
2017-04-11T08:44:41.171Z,2.29
2017-04-11T08:45:41.345Z,2.41
2017-04-11T08:46:41.128Z,2.17
2017-04-11T08:47:40.894Z,2.03
2017-04-11T08:48:40.659Z,2.46
2017-04-11T08:49:40.389Z,1.84
2017-04-11T08:50:40.183Z,2.39
2017-04-11T08:51:39.980Z,2.31
2017-04-11T08:52:39.853Z,2.26
2017-04-11T08:53:39.583Z,2.07
2017-04-11T08:54:39.597Z,2.26
2017-04-11T08:55:40.473Z,1.97
2017-04-11T08:56:40.688Z,2.50
2017-04-11T08:57:41.466Z,2.41
2017-04-11T08:58:41.372Z,2.19
2017-04-11T08:59:41.170Z,1.90
2017-04-11T09:00:41.236Z,1.99
2017-04-11T09:01:41.453Z,2.37
2017-04-11T09:02:41.728Z,1.83
2017-04-11T09:03:41.981Z,2.03
2017-04-11T09:04:42.028Z,2.21
2017-04-11T09:05:42.175Z,2.52
2017-04-11T09:06:42.213Z,2.02
2017-04-11T09:07:42.440Z,2.17
2017-04-11T09:08:43.770Z,1.98
2017-04-11T09:09:46.247Z,2.45
2017-04-11T09:10:46.904Z,2.11
2017-04-11T09:11:47.013Z,2.00
2017-04-11T09:12:47.734Z,1.82
2017-04-11T09:13:49.122Z,1.90
2017-04-11T09:14:49.061Z,1.83
2017-04-11T09:15:49.857Z,1.98
2017-04-11T09:16:52.218Z,2.00
2017-04-11T09:17:52.351Z,1.85
2017-04-11T09:18:52.876Z,1.68
2017-04-11T09:19:52.781Z,1.98
2017-04-11T09:20:52.727Z,1.78
2017-04-11T09:21:53.663Z,2.08
2017-04-11T09:22:53.517Z,1.92
2017-04-11T09:23:53.725Z,2.25
2017-04-11T09:24:54.031Z,2.10
2017-04-11T09:25:54.120Z,2.03
2017-04-11T09:26:54.019Z,1.82
2017-04-11T09:27:53.908Z,2.30
2017-04-11T09:28:54.044Z,1.65
2017-04-11T09:29:54.259Z,2.03
2017-04-11T09:30:55.396Z,1.82
2017-04-11T09:31:55.574Z,2.05
2017-04-11T09:32:55.533Z,1.97
2017-04-11T09:33:55.406Z,2.18
2017-04-11T09:34:55.354Z,2.20
2017-04-11T09:35:55.834Z,1.60
2017-04-11T09:36:55.879Z,1.46
2017-04-11T09:37:59.393Z,1.75
2017-04-11T09:38:59.149Z,1.61
2017-04-11T09:40:04.461Z,2.09
2017-04-11T09:41:04.221Z,1.50
2017-04-11T09:42:04.493Z,1.50
2017-04-11T09:43:04.678Z,1.59
2017-04-11T09:44:05.797Z,1.49
2017-04-11T09:45:05.716Z,1.53
2017-04-11T09:46:05.600Z,1.96
2017-04-11T09:47:05.462Z,1.83
2017-04-11T09:48:05.283Z,2.06
2017-04-11T09:49:05.062Z,1.67
2017-04-11T09:50:05.032Z,1.98
2017-04-11T09:51:04.825Z,1.89
2017-04-11T09:52:04.587Z,1.71
2017-04-11T09:53:04.483Z,1.64
2017-04-11T09:54:04.357Z,2.29
2017-04-11T09:55:04.272Z,1.60
2017-04-11T09:56:04.552Z,1.93
2017-04-11T09:57:04.522Z,1.90
2017-04-11T09:58:04.302Z,1.87
2017-04-11T09:59:04.454Z,1.53
2017-04-11T10:00:04.446Z,2.00
2017-04-11T10:01:04.335Z,1.63
2017-04-11T10:02:04.344Z,1.49
2017-04-11T10:03:05.381Z,1.76
2017-04-11T10:04:05.209Z,2.10
2017-04-11T10:05:06.804Z,1.79
2017-04-11T10:06:06.616Z,1.70
2017-04-11T10:07:10.970Z,2.01
2017-04-11T10:08:11.566Z,1.69
2017-04-11T10:09:11.848Z,1.67
2017-04-11T10:10:11.625Z,1.74
2017-04-11T10:11:11.664Z,1.50
2017-04-11T10:12:11.591Z,1.83
2017-04-11T10:13:12.199Z,1.64
2017-04-11T10:14:12.226Z,1.59
2017-04-11T10:15:12.055Z,1.77
2017-04-11T10:16:11.954Z,1.50
2017-04-11T10:17:11.744Z,2.11
2017-04-11T10:18:11.545Z,2.31
2017-04-11T10:19:11.340Z,1.61
2017-04-11T10:20:11.124Z,1.74
2017-04-11T10:21:10.896Z,1.56
2017-04-11T10:22:11.286Z,1.56
2017-04-11T10:23:11.053Z,1.96
2017-04-11T10:24:11.617Z,2.03
2017-04-11T10:25:11.408Z,1.84
2017-04-11T10:26:11.205Z,1.69
2017-04-11T10:27:10.918Z,1.86
2017-04-11T10:28:10.748Z,1.99
2017-04-11T10:29:10.516Z,1.96
2017-04-11T10:30:10.671Z,1.73
2017-04-11T10:31:10.614Z,2.03
2017-04-11T10:32:15.297Z,1.83
2017-04-11T10:33:15.122Z,1.56
2017-04-11T10:34:15.129Z,2.01
2017-04-11T10:35:15.011Z,1.69
2017-04-11T10:36:14.867Z,1.73
2017-04-11T10:37:14.612Z,1.69
2017-04-11T10:38:14.392Z,1.80
2017-04-11T10:39:14.187Z,1.54
2017-04-11T10:40:15.178Z,1.76
2017-04-11T10:41:15.093Z,1.94
2017-04-11T10:42:15.032Z,1.87
2017-04-11T10:43:14.924Z,1.57
2017-04-11T10:44:14.928Z,1.88
2017-04-11T10:45:14.682Z,1.73
2017-04-11T10:46:14.479Z,2.14
2017-04-11T10:47:14.278Z,1.53
2017-04-11T10:48:14.098Z,1.49
2017-04-11T10:49:13.859Z,1.73
